createdAt,value
2023-02-02T00:02:01.835Z,10.95
2023-02-02T00:04:31.826Z,10.98
2023-02-02T00:06:58.565Z,10.98
2023-02-02T00:09:31.429Z,10.97
2023-02-02T00:11:59.270Z,10.98
2023-02-02T00:14:26.682Z,10.98
2023-02-02T00:16:57.429Z,10.97
2023-02-02T00:19:27.029Z,10.98
2023-02-02T00:21:54.973Z,10.98
2023-02-02T00:24:22.633Z,10.97
2023-02-02T00:26:53.249Z,10.95
2023-02-02T00:29:31.004Z,11.00
2023-02-02T00:31:58.207Z,11.01
2023-02-02T00:34:25.310Z,11.00
2023-02-02T00:36:52.442Z,11.01
2023-02-02T00:39:22.517Z,11.01
2023-02-02T00:41:49.384Z,11.04
2023-02-02T00:44:34.525Z,11.05
2023-02-02T00:47:01.334Z,11.01
2023-02-02T00:49:27.867Z,11.01
2023-02-02T00:51:54.477Z,10.98
2023-02-02T00:54:21.314Z,11.00
2023-02-02T00:56:48.280Z,10.98
2023-02-02T00:59:14.957Z,11.00
2023-02-02T01:01:41.689Z,11.03
2023-02-02T01:04:08.668Z,11.01
2023-02-02T01:06:35.766Z,11.01
2023-02-02T01:09:02.742Z,11.00
2023-02-02T01:11:30.867Z,11.01
2023-02-02T01:13:57.922Z,10.98
2023-02-02T01:16:24.946Z,10.95
2023-02-02T01:18:52.350Z,10.95
2023-02-02T01:21:19.359Z,10.94
2023-02-02T01:23:45.919Z,10.91
2023-02-02T01:26:13.828Z,10.91
2023-02-02T01:28:41.128Z,10.93
2023-02-02T01:31:14.111Z,10.91
2023-02-02T01:33:41.196Z,10.90
2023-02-02T01:36:11.678Z,10.91
2023-02-02T01:38:38.370Z,10.90
2023-02-02T01:41:05.634Z,10.87
2023-02-02T01:43:44.233Z,10.87
2023-02-02T01:46:22.512Z,10.84
2023-02-02T01:48:57.080Z,10.83
2023-02-02T01:51:30.047Z,10.83
2023-02-02T01:53:59.685Z,10.81
2023-02-02T01:56:34.322Z,10.81
2023-02-02T01:59:02.553Z,10.78
2023-02-02T02:01:29.231Z,10.78
2023-02-02T02:03:56.620Z,10.80
2023-02-02T02:06:25.924Z,10.71
2023-02-02T02:09:06.889Z,10.76
2023-02-02T02:11:35.231Z,10.71
2023-02-02T02:14:29.000Z,10.73
2023-02-02T02:17:23.642Z,10.69
2023-02-02T02:20:11.784Z,10.63
2023-02-02T02:23:30.478Z,10.59
2023-02-02T02:26:33.812Z,10.53
2023-02-02T02:29:18.104Z,10.49
2023-02-02T02:32:11.445Z,10.48
2023-02-02T02:34:55.010Z,10.43
2023-02-02T02:37:40.230Z,10.42
2023-02-02T02:40:35.321Z,10.35
2023-02-02T02:43:27.166Z,10.31
2023-02-02T02:45:54.619Z,10.23
2023-02-02T02:48:21.440Z,10.22
2023-02-02T02:50:48.044Z,10.19
2023-02-02T02:53:19.667Z,10.15
2023-02-02T02:56:09.355Z,10.11
2023-02-02T02:58:54.095Z,10.06
2023-02-02T03:01:51.484Z,9.99
2023-02-02T03:04:21.038Z,9.95
2023-02-02T03:06:57.305Z,9.93
2023-02-02T03:09:27.091Z,9.91
2023-02-02T03:11:56.231Z,9.91
2023-02-02T03:14:22.852Z,9.84
2023-02-02T03:16:52.056Z,9.78
2023-02-02T03:19:19.135Z,9.74
2023-02-02T03:21:45.666Z,9.71
2023-02-02T03:24:12.366Z,9.69
2023-02-02T03:26:39.192Z,9.66
2023-02-02T03:29:06.408Z,9.63
2023-02-02T03:31:33.100Z,9.60
2023-02-02T03:33:59.755Z,9.57
2023-02-02T03:36:26.426Z,9.54
2023-02-02T03:38:52.978Z,9.54
2023-02-02T03:58:46.449Z,9.46
2023-02-02T04:01:14.886Z,9.39
2023-02-02T04:03:41.944Z,9.38
2023-02-02T04:06:09.102Z,9.35
2023-02-02T04:08:35.733Z,9.35
2023-02-02T04:11:02.557Z,9.35
2023-02-02T04:13:29.319Z,9.38
2023-02-02T04:16:00.642Z,9.35
2023-02-02T04:18:28.128Z,9.33
2023-02-02T04:20:59.391Z,9.35
2023-02-02T04:23:26.337Z,9.36
2023-02-02T04:25:53.009Z,9.39
2023-02-02T04:28:19.875Z,9.39
2023-02-02T04:30:46.549Z,9.40
2023-02-02T04:33:13.275Z,9.39
2023-02-02T04:35:39.893Z,9.42
2023-02-02T04:38:06.463Z,9.42
2023-02-02T04:40:33.075Z,9.42
2023-02-02T04:42:59.680Z,9.43
2023-02-02T04:45:26.626Z,9.46
2023-02-02T04:47:53.355Z,9.47
2023-02-02T04:50:19.978Z,9.47
2023-02-02T04:52:46.593Z,9.49
2023-02-02T04:55:13.168Z,9.46
2023-02-02T04:57:39.756Z,9.51
2023-02-02T05:00:07.165Z,9.50
2023-02-02T05:02:37.189Z,9.51
2023-02-02T05:05:04.332Z,9.50
2023-02-02T05:07:31.504Z,9.50
2023-02-02T05:09:58.068Z,9.50
2023-02-02T05:12:24.637Z,9.53
2023-02-02T05:14:51.452Z,9.53
2023-02-02T05:17:18.024Z,9.50
2023-02-02T05:19:44.670Z,9.51
2023-02-02T05:22:11.251Z,9.51
2023-02-02T05:24:37.990Z,9.50
2023-02-02T05:27:04.719Z,9.50
2023-02-02T05:29:31.616Z,9.54
2023-02-02T05:31:58.265Z,9.53
2023-02-02T05:34:24.980Z,9.50
2023-02-02T05:36:51.516Z,9.54
2023-02-02T05:39:18.199Z,9.58
2023-02-02T05:41:44.793Z,9.57
2023-02-02T05:44:13.148Z,9.54
2023-02-02T05:46:40.073Z,9.57
2023-02-02T05:49:06.746Z,9.57
2023-02-02T05:51:39.358Z,9.53
2023-02-02T05:54:05.969Z,9.54
2023-02-02T05:56:35.460Z,9.51
2023-02-02T05:59:05.034Z,9.53
2023-02-02T06:01:31.607Z,9.51
2023-02-02T06:03:58.548Z,9.56
2023-02-02T06:06:25.127Z,9.54
2023-02-02T06:08:51.722Z,9.58
2023-02-02T06:11:19.066Z,9.56
2023-02-02T06:13:46.203Z,9.51
2023-02-02T06:16:13.147Z,9.51
2023-02-02T06:18:39.994Z,9.49
2023-02-02T06:21:07.263Z,9.49
2023-02-02T06:23:34.477Z,9.49
2023-02-02T06:26:03.465Z,9.47
2023-02-02T06:28:33.124Z,9.46
2023-02-02T06:31:07.778Z,9.44
2023-02-02T06:33:34.541Z,9.42
2023-02-02T06:36:06.064Z,9.42
2023-02-02T06:38:32.793Z,9.40
2023-02-02T06:41:00.422Z,9.42
2023-02-02T06:43:27.548Z,9.40
2023-02-02T06:45:54.231Z,9.35
2023-02-02T06:48:20.914Z,9.33
2023-02-02T06:50:47.510Z,9.30
2023-02-02T06:53:14.123Z,9.29
2023-02-02T06:55:40.713Z,9.25
2023-02-02T06:58:07.411Z,9.23
2023-02-02T07:00:36.980Z,9.19
2023-02-02T07:03:03.771Z,9.18
2023-02-02T07:05:31.009Z,9.16
2023-02-02T07:07:57.800Z,9.12
2023-02-02T07:11:13.794Z,9.07
2023-02-02T07:13:10.939Z,9.02
2023-02-02T07:15:41.308Z,9.01
2023-02-02T07:18:08.479Z,9.00
2023-02-02T07:20:35.072Z,8.98
2023-02-02T07:23:04.516Z,8.97
2023-02-02T07:25:31.148Z,8.98
2023-02-02T07:27:57.727Z,8.95
2023-02-02T07:30:25.591Z,8.95
2023-02-02T07:32:52.228Z,8.98
2023-02-02T07:35:18.862Z,8.98
2023-02-02T07:37:51.647Z,8.97
2023-02-02T07:40:18.354Z,9.00
2023-02-02T07:42:47.999Z,9.00
2023-02-02T07:45:24.672Z,9.04
2023-02-02T07:47:58.909Z,9.08
2023-02-02T07:50:26.555Z,9.12
2023-02-02T07:52:53.769Z,9.16
2023-02-02T07:55:21.052Z,9.19
2023-02-02T07:57:47.642Z,9.26
2023-02-02T08:00:14.463Z,9.30
2023-02-02T08:02:41.093Z,9.33
2023-02-02T08:05:07.909Z,9.40
2023-02-02T08:07:35.602Z,9.46
2023-02-02T08:10:02.537Z,9.49
2023-02-02T08:12:29.133Z,9.57
2023-02-02T08:14:55.779Z,9.64
2023-02-02T08:17:23.372Z,9.66
2023-02-02T08:19:50.377Z,9.70
2023-02-02T08:22:18.802Z,9.70
2023-02-02T08:24:46.602Z,9.74
2023-02-02T08:27:13.183Z,9.77
2023-02-02T08:29:39.881Z,9.83
2023-02-02T08:32:06.476Z,9.90
2023-02-02T08:34:36.868Z,9.97
2023-02-02T08:37:04.026Z,10.02
2023-02-02T08:39:30.587Z,10.15
2023-02-02T08:41:57.810Z,10.28
2023-02-02T08:44:25.176Z,10.46
2023-02-02T08:46:54.447Z,10.67
2023-02-02T08:49:21.058Z,10.91
2023-02-02T08:51:47.835Z,11.19
2023-02-02T08:54:14.425Z,11.43
2023-02-02T08:56:41.062Z,11.73
2023-02-02T08:59:07.773Z,12.01
2023-02-02T09:01:35.230Z,12.25
2023-02-02T09:04:07.688Z,12.50
2023-02-02T09:06:40.070Z,12.70
2023-02-02T09:09:10.446Z,12.93
2023-02-02T09:11:38.832Z,13.11
2023-02-02T09:14:06.837Z,13.32
2023-02-02T09:16:35.144Z,13.52
2023-02-02T09:19:02.783Z,13.70
2023-02-02T09:21:29.381Z,13.87
2023-02-02T09:23:56.009Z,14.06
2023-02-02T09:26:28.230Z,14.25
2023-02-02T09:28:57.812Z,14.44
2023-02-02T09:31:25.790Z,14.58
2023-02-02T09:33:52.639Z,14.68
2023-02-02T09:36:21.565Z,14.77
2023-02-02T09:38:50.366Z,14.87
2023-02-02T09:41:19.937Z,15.04
2023-02-02T09:43:57.964Z,15.20
2023-02-02T09:46:43.422Z,15.31
2023-02-02T09:49:15.536Z,15.44
2023-02-02T09:51:49.382Z,15.57
2023-02-02T09:54:22.898Z,15.69
2023-02-02T09:56:55.897Z,15.79
2023-02-02T09:59:36.019Z,15.90
2023-02-02T10:02:33.869Z,16.00
2023-02-02T10:05:17.263Z,16.05
2023-02-02T10:07:48.287Z,16.14
2023-02-02T10:10:35.151Z,16.23
2023-02-02T10:13:13.914Z,16.35
2023-02-02T10:16:06.618Z,16.45
2023-02-02T10:18:45.285Z,16.57
2023-02-02T10:21:20.966Z,16.61
2023-02-02T10:23:47.615Z,16.68
2023-02-02T10:26:26.856Z,16.76
2023-02-02T10:29:02.911Z,16.82
2023-02-02T10:31:48.100Z,16.88
2023-02-02T10:34:35.926Z,16.96
2023-02-02T10:37:24.491Z,16.96
2023-02-02T10:40:25.016Z,16.96
2023-02-02T10:43:35.984Z,16.96
2023-02-02T10:46:05.174Z,16.95
2023-02-02T10:48:36.010Z,16.93
2023-02-02T10:51:14.145Z,16.98
2023-02-02T10:53:45.633Z,17.00
2023-02-02T10:56:13.833Z,17.03
2023-02-02T10:59:06.932Z,17.06
2023-02-02T11:01:33.563Z,17.06
2023-02-02T11:04:18.714Z,17.07
2023-02-02T11:06:50.926Z,17.16
2023-02-02T11:09:26.292Z,17.00
2023-02-02T11:12:22.944Z,16.88
2023-02-02T11:15:06.643Z,16.92
2023-02-02T11:17:34.084Z,16.96
2023-02-02T11:20:00.984Z,16.98
2023-02-02T11:22:34.160Z,16.83
2023-02-02T11:25:04.819Z,16.67
2023-02-02T11:27:38.654Z,16.52
2023-02-02T11:30:27.573Z,16.57
2023-02-02T11:32:55.809Z,16.57
2023-02-02T11:35:26.325Z,16.62
2023-02-02T11:37:57.302Z,16.69
2023-02-02T11:40:28.747Z,16.68
2023-02-02T11:42:57.335Z,16.69
2023-02-02T11:45:34.528Z,16.65
2023-02-02T11:48:20.154Z,16.61
2023-02-02T11:50:58.646Z,16.62
2023-02-02T11:53:27.709Z,16.58
2023-02-02T11:55:56.364Z,16.55
2023-02-02T11:58:28.976Z,16.52
2023-02-02T12:01:01.753Z,16.47
2023-02-02T12:03:30.440Z,16.41
2023-02-02T12:05:57.385Z,16.38
2023-02-02T12:08:24.800Z,16.37
2023-02-02T12:11:24.807Z,16.31
2023-02-02T12:14:28.416Z,16.21
2023-02-02T12:17:33.145Z,16.14
2023-02-02T12:20:37.111Z,16.09
2023-02-02T12:23:26.171Z,16.16
2023-02-02T12:26:11.476Z,16.14
2023-02-02T12:28:43.971Z,16.00
2023-02-02T12:31:26.579Z,15.86
2023-02-02T12:34:16.069Z,15.75
2023-02-02T12:37:06.044Z,15.69
2023-02-02T12:39:47.011Z,15.70
2023-02-02T12:42:32.068Z,15.57
2023-02-02T12:45:12.096Z,15.52
2023-02-02T12:48:14.983Z,15.48
2023-02-02T12:50:47.251Z,15.37
2023-02-02T12:53:25.390Z,15.37
2023-02-02T12:56:20.939Z,15.32
2023-02-02T12:59:49.243Z,15.28
2023-02-02T13:02:21.902Z,15.26
2023-02-02T13:07:52.427Z,15.17
2023-02-02T13:10:31.754Z,15.14
2023-02-02T13:13:08.442Z,15.10
2023-02-02T13:15:45.693Z,15.03
2023-02-02T13:18:28.874Z,15.04
2023-02-02T13:21:01.766Z,15.07
2023-02-02T13:23:36.411Z,15.11
2023-02-02T13:26:23.819Z,15.14
2023-02-02T13:29:11.573Z,15.13
2023-02-02T13:31:47.170Z,15.13
2023-02-02T13:34:41.116Z,15.16
2023-02-02T13:37:32.558Z,15.10
2023-02-02T13:40:16.824Z,15.06
2023-02-02T13:42:49.532Z,15.02
2023-02-02T13:45:33.784Z,14.99
2023-02-02T13:48:23.777Z,14.99
2023-02-02T13:51:31.993Z,14.93
2023-02-02T13:54:14.897Z,14.96
2023-02-02T13:57:08.173Z,15.02
2023-02-02T13:59:53.676Z,15.02
2023-02-02T14:02:35.706Z,14.97
2023-02-02T14:05:06.825Z,14.97
2023-02-02T14:07:42.425Z,15.00
2023-02-02T14:10:39.513Z,15.04
2023-02-02T14:13:32.156Z,15.04
2023-02-02T14:16:02.125Z,15.07
2023-02-02T14:18:55.356Z,15.08
2023-02-02T14:21:34.231Z,15.07
2023-02-02T14:24:05.581Z,15.08
2023-02-02T14:26:47.373Z,15.08
2023-02-02T14:29:32.043Z,15.07
2023-02-02T14:32:07.489Z,14.99
2023-02-02T14:34:41.747Z,14.96
2023-02-02T14:37:23.765Z,14.96
2023-02-02T14:39:59.422Z,14.94
2023-02-02T14:42:56.577Z,14.94
2023-02-02T14:45:27.794Z,14.96
2023-02-02T14:48:06.453Z,14.97
2023-02-02T14:50:38.978Z,14.96
2023-02-02T14:53:05.577Z,14.94
2023-02-02T14:55:32.671Z,14.93
2023-02-02T14:58:02.245Z,14.92
2023-02-02T15:00:34.144Z,14.93
2023-02-02T15:03:34.245Z,14.92
2023-02-02T15:06:34.701Z,14.93
2023-02-02T15:09:19.760Z,14.93
2023-02-02T15:12:04.499Z,14.92
2023-02-02T15:14:56.808Z,14.87
2023-02-02T15:17:41.850Z,14.87
2023-02-02T15:20:20.813Z,14.83
2023-02-02T15:22:47.361Z,14.83
2023-02-02T15:25:25.768Z,14.83
2023-02-02T15:28:01.571Z,14.83
2023-02-02T15:30:30.875Z,14.80
2023-02-02T15:32:58.596Z,14.82
2023-02-02T15:35:30.737Z,14.82
2023-02-02T15:38:02.417Z,14.82
2023-02-02T15:40:32.220Z,14.85
2023-02-02T15:43:02.670Z,14.80
2023-02-02T15:45:38.165Z,14.79
2023-02-02T15:48:21.177Z,14.77
2023-02-02T15:50:51.252Z,14.79
2023-02-02T15:53:27.469Z,14.76
2023-02-02T15:55:55.383Z,14.72
2023-02-02T15:58:24.680Z,14.72
2023-02-02T16:01:02.190Z,14.69
2023-02-02T16:03:52.240Z,14.64
2023-02-02T16:06:19.611Z,14.59
2023-02-02T16:08:46.763Z,14.59
2023-02-02T16:11:25.819Z,14.56
2023-02-02T16:14:02.693Z,14.54
2023-02-02T16:16:35.548Z,14.49
2023-02-02T16:19:16.223Z,14.49
2023-02-02T16:21:47.720Z,14.51
2023-02-02T16:24:20.744Z,14.48
2023-02-02T16:26:48.257Z,14.49
2023-02-02T16:29:17.455Z,14.46
2023-02-02T16:31:46.541Z,14.41
2023-02-02T16:34:18.453Z,14.39
2023-02-02T16:37:04.651Z,14.37
2023-02-02T16:39:31.203Z,14.32
2023-02-02T16:42:12.106Z,14.32
2023-02-02T16:44:43.963Z,14.32
2023-02-02T16:47:25.930Z,14.28
2023-02-02T16:49:54.764Z,14.27
2023-02-02T16:52:22.525Z,14.25
2023-02-02T16:54:55.239Z,14.24
2023-02-02T16:57:25.925Z,14.22
2023-02-02T16:59:55.739Z,14.18
2023-02-02T17:02:38.768Z,14.17
2023-02-02T17:05:17.052Z,14.14
2023-02-02T17:07:49.953Z,14.10
2023-02-02T17:10:16.519Z,14.06
2023-02-02T17:12:44.592Z,14.00
2023-02-02T17:15:17.240Z,14.03
2023-02-02T17:17:48.990Z,13.97
2023-02-02T17:20:19.875Z,14.00
2023-02-02T17:22:57.088Z,13.99
2023-02-02T17:25:29.291Z,13.97
2023-02-02T17:27:58.648Z,13.97
2023-02-02T17:30:26.126Z,13.93
2023-02-02T17:32:52.690Z,13.94
2023-02-02T17:35:22.133Z,13.91
2023-02-02T17:37:49.472Z,13.87
2023-02-02T17:40:17.509Z,13.87
2023-02-02T17:42:47.232Z,13.86
2023-02-02T17:45:24.689Z,13.82
2023-02-02T17:47:51.653Z,13.76
2023-02-02T17:50:18.531Z,13.74
2023-02-02T17:52:46.040Z,13.70
2023-02-02T17:55:29.541Z,13.66
2023-02-02T17:57:56.397Z,13.62
2023-02-02T18:00:26.500Z,13.59
2023-02-02T18:03:01.072Z,13.56
2023-02-02T18:05:27.952Z,13.54
2023-02-02T18:07:55.000Z,13.51
2023-02-02T18:10:24.712Z,13.42
2023-02-02T18:12:51.772Z,13.42
2023-02-02T18:15:18.373Z,13.42
2023-02-02T18:17:44.930Z,13.38
2023-02-02T18:20:15.005Z,13.37
2023-02-02T18:22:47.600Z,13.32
2023-02-02T18:25:15.198Z,13.29
2023-02-02T18:27:41.762Z,13.24
2023-02-02T18:30:09.219Z,13.22
2023-02-02T18:32:39.550Z,13.17
2023-02-02T18:35:06.772Z,13.15
2023-02-02T18:37:33.310Z,13.11
2023-02-02T18:39:59.838Z,13.07
2023-02-02T18:42:29.941Z,13.04
2023-02-02T18:44:56.725Z,13.01
2023-02-02T18:47:23.480Z,13.00
2023-02-02T18:49:50.177Z,12.96
2023-02-02T18:52:18.968Z,12.90
2023-02-02T18:54:47.726Z,12.87
2023-02-02T18:57:15.565Z,12.86
2023-02-02T18:59:43.202Z,12.86
2023-02-02T19:02:18.028Z,12.80
2023-02-02T19:05:04.205Z,12.77
2023-02-02T19:07:50.150Z,12.76
2023-02-02T19:10:17.677Z,12.73
2023-02-02T19:13:06.731Z,12.72
2023-02-02T19:15:37.936Z,12.66
2023-02-02T19:18:15.400Z,12.66
2023-02-02T19:20:43.322Z,12.60
2023-02-02T19:23:21.176Z,12.59
2023-02-02T19:25:51.716Z,12.57
2023-02-02T19:28:23.960Z,12.52
2023-02-02T19:30:53.385Z,12.49
2023-02-02T19:33:21.711Z,12.48
2023-02-02T19:35:52.391Z,12.45
2023-02-02T19:38:20.663Z,12.41
2023-02-02T19:40:47.954Z,12.41
2023-02-02T19:43:28.061Z,12.38
2023-02-02T19:45:57.285Z,12.38
2023-02-02T19:48:27.031Z,12.32
2023-02-02T19:50:58.267Z,12.31
2023-02-02T19:53:32.775Z,12.28
2023-02-02T19:55:59.315Z,12.25
2023-02-02T19:58:37.467Z,12.24
2023-02-02T20:01:17.448Z,12.20
2023-02-02T20:03:46.537Z,12.17
2023-02-02T20:06:26.958Z,12.13
2023-02-02T20:08:53.891Z,12.14
2023-02-02T20:11:32.216Z,12.10
2023-02-02T20:14:19.062Z,12.10
2023-02-02T20:16:50.816Z,12.04
2023-02-02T20:19:22.253Z,11.99
2023-02-02T20:21:51.331Z,12.01
2023-02-02T20:24:23.784Z,11.98
2023-02-02T20:26:52.684Z,11.99
2023-02-02T20:29:43.289Z,11.97
2023-02-02T20:32:30.360Z,11.95
2023-02-02T20:34:59.444Z,11.94
2023-02-02T20:37:32.335Z,11.88
2023-02-02T20:40:21.623Z,11.86
2023-02-02T20:42:49.271Z,11.86
2023-02-02T20:45:17.535Z,11.80
2023-02-02T20:47:47.385Z,11.77
2023-02-02T20:50:15.609Z,11.73
2023-02-02T20:52:42.448Z,11.71
2023-02-02T20:55:09.598Z,11.67
2023-02-02T20:57:38.403Z,11.65
2023-02-02T21:00:12.258Z,11.65
2023-02-02T21:02:38.904Z,11.62
2023-02-02T21:05:05.994Z,11.60
2023-02-02T21:07:32.650Z,11.59
2023-02-02T21:09:59.252Z,11.58
2023-02-02T21:12:26.002Z,11.58
2023-02-02T21:14:53.920Z,11.55
2023-02-02T21:17:20.568Z,11.55
2023-02-02T21:19:47.234Z,11.53
2023-02-02T21:22:14.121Z,11.47
2023-02-02T21:24:41.516Z,11.47
2023-02-02T21:27:09.046Z,11.47
2023-02-02T21:29:35.793Z,11.43
2023-02-02T21:32:03.545Z,11.46
2023-02-02T21:34:31.055Z,11.43
2023-02-02T21:36:58.303Z,11.39
2023-02-02T21:39:31.643Z,11.35
2023-02-02T21:42:11.734Z,11.31
2023-02-02T21:44:39.700Z,11.29
2023-02-02T21:47:35.455Z,11.25
2023-02-02T21:50:14.693Z,11.22
2023-02-02T21:52:41.418Z,11.16
2023-02-02T21:55:36.660Z,11.10
2023-02-02T21:58:21.918Z,11.05
2023-02-02T22:00:58.287Z,11.03
2023-02-02T22:03:34.914Z,10.98
2023-02-02T22:06:16.423Z,10.93
2023-02-02T22:08:43.009Z,10.90
2023-02-02T22:11:18.054Z,10.87
2023-02-02T22:13:44.565Z,10.80
2023-02-02T22:16:18.912Z,10.80
2023-02-02T22:18:45.685Z,10.78
2023-02-02T22:21:18.836Z,10.81
2023-02-02T22:23:47.228Z,10.80
2023-02-02T22:26:29.350Z,10.80
2023-02-02T22:28:56.389Z,10.81
2023-02-02T22:31:23.102Z,10.83
2023-02-02T22:33:49.686Z,10.87
2023-02-02T22:36:16.262Z,10.85
2023-02-02T22:38:42.817Z,10.84
2023-02-02T22:41:09.578Z,10.83
2023-02-02T22:43:36.157Z,10.78
2023-02-02T22:46:02.827Z,10.74
2023-02-02T22:48:29.663Z,10.70
2023-02-02T22:50:56.205Z,10.66
2023-02-02T22:53:22.838Z,10.66
2023-02-02T22:55:56.322Z,10.67
2023-02-02T22:58:24.867Z,10.61
2023-02-02T23:00:52.089Z,10.64
2023-02-02T23:03:18.645Z,10.64
2023-02-02T23:05:45.388Z,10.63
2023-02-02T23:08:11.948Z,10.63
2023-02-02T23:10:38.686Z,10.61
2023-02-02T23:13:06.184Z,10.61
2023-02-02T23:15:33.272Z,10.64
2023-02-02T23:17:59.913Z,10.66
2023-02-02T23:20:27.802Z,10.61
2023-02-02T23:22:54.544Z,10.59
2023-02-02T23:25:22.044Z,10.56
2023-02-02T23:27:48.824Z,10.55
2023-02-02T23:30:15.786Z,10.53
2023-02-02T23:32:42.448Z,10.50
2023-02-02T23:35:10.904Z,10.50
2023-02-02T23:37:37.911Z,10.45
2023-02-02T23:40:05.267Z,10.42
2023-02-02T23:42:32.228Z,10.38
2023-02-02T23:44:58.800Z,10.35
2023-02-02T23:47:25.782Z,10.29
2023-02-02T23:49:52.530Z,10.29
2023-02-02T23:52:19.222Z,10.22
2023-02-02T23:54:45.933Z,10.22
2023-02-02T23:57:12.489Z,10.23
2023-02-02T23:59:39.158Z,10.23
